Ivs Bosch Hoek — 9V3260 — position and weather

sailwx.info

Track history (hours):
 
Tides and Currents Weather Stations Pressure Air Temp Water Temp Dewpoint Dewpoint Depression Visibility Wind Speed Wind Dir Waves Ship Positions

Ivs Bosch Hoek

Last reported at 2018-Jun-15 12:29 UTC. Time now 2018-Aug-14 07:02 UTC.
Position S 28°25' E 032°41'.
Warning: this ship's position is 59 days out of date.

Length 199 m; draft 7.1 m.

Type: Cargo ship. MMSI: 563290000.

Date/timePositionNaut miles runAvg speedWind from/ knotsBaromVisibWave heightAir tempDewpointWater temp
2018-Jun-15 12:29S 28°25' E 032°41'2111.1
2018-Jun-15 10:37S 28°42' E 032°28'111.2
2018-Jun-15 10:30S 28°43' E 032°27'511.2
2018-Jun-15 10:00S 28°46' E 032°22'1011.4
2018-Jun-15 09:10S 28°50' E 032°12'1 6.1
2018-Jun-15 09:00S 28°50' E 032°11'8 4.8
2018-Jun-15 07:26S 28°48' E 032°03'0 0.0
2018-Jun-15 04:50S 28°48' E 032°03'0 0.0
2018-Jun-15 01:17S 28°48' E 032°03'0 0.0
2018-Jun-15 00:56S 28°48' E 032°03'0 0.0
2018-Jun-15 00:26S 28°48' E 032°03'0 0.0
2018-Jun-14 23:56S 28°48' E 032°03'0 0.0
2018-Jun-14 23:29S 28°48' E 032°03'0 0.0
2018-Jun-14 22:56S 28°48' E 032°03'0 0.0
2018-Jun-14 22:26S 28°48' E 032°03'0 0.0
2018-Jun-14 21:50S 28°48' E 032°03'0 0.0
2018-Jun-14 21:29S 28°48' E 032°03'0 0.0
2018-Jun-14 20:59S 28°48' E 032°03'0 0.0
2018-Jun-14 20:26S 28°48' E 032°03'0 0.0
2018-Jun-14 19:59S 28°48' E 032°03'0 0.0
2018-Jun-14 18:59S 28°48' E 032°03'0 0.0
2018-Jun-14 17:37S 28°48' E 032°03'0 0.4
2018-Jun-14 17:30S 28°48' E 032°03'1 1.2
2018-Jun-14 17:00S 28°48' E 032°04'1 2.2
2018-Jun-14 16:23S 28°48' E 032°05'3 6.4
2018-Jun-14 15:59S 28°50' E 032°08'3 6.7
2018-Jun-14 15:30S 28°52' E 032°10'2 2.6
2018-Jun-14 14:55S 28°54' E 032°11'0 0.1
2018-Jun-14 14:28S 28°54' E 032°11'0 0.1
2018-Jun-14 13:58S 28°54' E 032°11'0 0.0
2018-Jun-14 13:28S 28°54' E 032°11'0 0.0
2018-Jun-14 12:49S 28°54' E 032°11'0 0.1
2018-Jun-14 12:13S 28°54' E 032°11'0 0.3
2018-Jun-14 11:58S 28°54' E 032°11'0 0.1
2018-Jun-14 11:28S 28°54' E 032°11'0 0.0
2018-Jun-14 10:55S 28°54' E 032°11'0 0.0
2018-Jun-14 10:07S 28°54' E 032°11'0 0.0
2018-Jun-14 09:43S 28°54' E 032°11'0 0.1
2018-Jun-14 09:25S 28°54' E 032°11'0 0.1
2018-Jun-14 08:55S 28°54' E 032°11'0 0.0
2018-Jun-14 08:28S 28°54' E 032°11'0 0.0
2018-Jun-14 07:58S 28°54' E 032°11'0 0.0
2018-Jun-14 07:25S 28°54' E 032°11'0 0.1
2018-Jun-14 06:55S 28°54' E 032°11'0 1.1
2018-Jun-14 06:31S 28°54' E 032°11'2 3.0
2018-Jun-14 06:00S 28°54' E 032°13'4 7.2
2018-Jun-14 05:31S 28°51' E 032°15'510.6
2018-Jun-14 05:01S 28°47' E 032°19'1713.5
2018-Jun-14 03:47S 28°37' E 032°35'9412.9
2018-Jun-13 20:32S 27°32' E 033°52'112.9
2018-Jun-13 20:30S 27°32' E 033°52'  
Track history (hours):
 
Tides and Currents Weather Stations Pressure Air Temp Water Temp Dewpoint Dewpoint Depression Visibility Wind Speed Wind Dir Waves Ship Positions

Ivs Bosch Hoek

Last reported at 2018-Jun-15 12:29 UTC. Time now 2018-Aug-14 07:02 UTC.
Position S 28°25' E 032°41'.
Warning: this ship's position is 59 days out of date.

Length 199 m; draft 7.1 m.

Type: Cargo ship. MMSI: 563290000.

Date/timePositionNaut miles runAvg speedWind from/ knotsBaromVisibWave heightAir tempDewpointWater temp
2018-Jun-15 12:29S 28°25' E 032°41'2111.1
2018-Jun-15 10:37S 28°42' E 032°28'111.2
2018-Jun-15 10:30S 28°43' E 032°27'511.2
2018-Jun-15 10:00S 28°46' E 032°22'1011.4
2018-Jun-15 09:10S 28°50' E 032°12'1 6.1
2018-Jun-15 09:00S 28°50' E 032°11'8 4.8
2018-Jun-15 07:26S 28°48' E 032°03'0 0.0
2018-Jun-15 04:50S 28°48' E 032°03'0 0.0
2018-Jun-15 01:17S 28°48' E 032°03'0 0.0
2018-Jun-15 00:56S 28°48' E 032°03'0 0.0
2018-Jun-15 00:26S 28°48' E 032°03'0 0.0
2018-Jun-14 23:56S 28°48' E 032°03'0 0.0
2018-Jun-14 23:29S 28°48' E 032°03'0 0.0
2018-Jun-14 22:56S 28°48' E 032°03'0 0.0
2018-Jun-14 22:26S 28°48' E 032°03'0 0.0
2018-Jun-14 21:50S 28°48' E 032°03'0 0.0
2018-Jun-14 21:29S 28°48' E 032°03'0 0.0
2018-Jun-14 20:59S 28°48' E 032°03'0 0.0
2018-Jun-14 20:26S 28°48' E 032°03'0 0.0
2018-Jun-14 19:59S 28°48' E 032°03'0 0.0
2018-Jun-14 18:59S 28°48' E 032°03'0 0.0
2018-Jun-14 17:37S 28°48' E 032°03'0 0.4
2018-Jun-14 17:30S 28°48' E 032°03'1 1.2
2018-Jun-14 17:00S 28°48' E 032°04'1 2.2
2018-Jun-14 16:23S 28°48' E 032°05'3 6.4
2018-Jun-14 15:59S 28°50' E 032°08'3 6.7
2018-Jun-14 15:30S 28°52' E 032°10'2 2.6
2018-Jun-14 14:55S 28°54' E 032°11'0 0.1
2018-Jun-14 14:28S 28°54' E 032°11'0 0.1
2018-Jun-14 13:58S 28°54' E 032°11'0 0.0
2018-Jun-14 13:28S 28°54' E 032°11'0 0.0
2018-Jun-14 12:49S 28°54' E 032°11'0 0.1
2018-Jun-14 12:13S 28°54' E 032°11'0 0.3
2018-Jun-14 11:58S 28°54' E 032°11'0 0.1
2018-Jun-14 11:28S 28°54' E 032°11'0 0.0
2018-Jun-14 10:55S 28°54' E 032°11'0 0.0
2018-Jun-14 10:07S 28°54' E 032°11'0 0.0
2018-Jun-14 09:43S 28°54' E 032°11'0 0.1
2018-Jun-14 09:25S 28°54' E 032°11'0 0.1
2018-Jun-14 08:55S 28°54' E 032°11'0 0.0
2018-Jun-14 08:28S 28°54' E 032°11'0 0.0
2018-Jun-14 07:58S 28°54' E 032°11'0 0.0
2018-Jun-14 07:25S 28°54' E 032°11'0 0.1
2018-Jun-14 06:55S 28°54' E 032°11'0 1.1
2018-Jun-14 06:31S 28°54' E 032°11'2 3.0
2018-Jun-14 06:00S 28°54' E 032°13'4 7.2
2018-Jun-14 05:31S 28°51' E 032°15'510.6
2018-Jun-14 05:01S 28°47' E 032°19'1713.5
2018-Jun-14 03:47S 28°37' E 032°35'9412.9
2018-Jun-13 20:32S 27°32' E 033°52'112.9
2018-Jun-13 20:30S 27°32' E 033°52'  

Dump ship's entire track history